createdAt,value
2022-10-09T00:01:32.755Z,54.85
2022-10-09T00:04:01.504Z,54.95
2022-10-09T00:06:33.524Z,55.04
2022-10-09T00:09:03.564Z,55.01
2022-10-09T00:11:34.237Z,54.93
2022-10-09T00:14:03.595Z,55.01
2022-10-09T00:16:32.556Z,55.01
2022-10-09T00:19:01.382Z,55.13
2022-10-09T00:21:32.977Z,55.19
2022-10-09T00:24:03.386Z,55.26
2022-10-09T00:26:32.445Z,55.38
2022-10-09T00:29:01.040Z,55.33
2022-10-09T00:31:29.653Z,55.38
2022-10-09T00:33:58.059Z,55.28
2022-10-09T00:36:27.468Z,55.35
2022-10-09T00:38:56.140Z,55.47
2022-10-09T00:41:27.268Z,55.48
2022-10-09T00:43:59.507Z,55.54
2022-10-09T00:46:34.984Z,55.57
2022-10-09T00:49:18.499Z,55.58
2022-10-09T00:51:48.612Z,55.49
2022-10-09T00:54:21.181Z,55.54
2022-10-09T00:56:50.867Z,55.52
2022-10-09T00:59:19.842Z,55.66
2022-10-09T01:01:48.480Z,55.79
2022-10-09T01:04:17.117Z,55.75
2022-10-09T01:07:25.120Z,55.71
2022-10-09T01:09:59.866Z,55.71
2022-10-09T01:12:55.221Z,55.79
2022-10-09T01:15:59.053Z,55.74
2022-10-09T01:18:47.394Z,55.80
2022-10-09T01:21:22.501Z,55.88
2022-10-09T01:23:53.858Z,56.05
2022-10-09T01:26:40.764Z,55.84
2022-10-09T01:29:11.609Z,55.85
2022-10-09T01:31:43.816Z,55.88
2022-10-09T01:34:15.194Z,55.87
2022-10-09T01:36:45.249Z,56.02
2022-10-09T01:39:20.433Z,56.03
2022-10-09T01:41:51.677Z,56.14
2022-10-09T01:44:26.479Z,56.13
2022-10-09T01:46:55.559Z,56.25
2022-10-09T01:49:59.449Z,56.23
2022-10-09T01:52:46.907Z,56.12
2022-10-09T01:55:27.627Z,56.19
2022-10-09T01:58:22.191Z,56.06
2022-10-09T02:01:10.842Z,56.05
2022-10-09T02:03:43.071Z,56.06
2022-10-09T02:06:14.741Z,56.03
2022-10-09T02:08:46.238Z,56.34
2022-10-09T02:11:15.461Z,56.36
2022-10-09T02:13:46.144Z,56.26
2022-10-09T02:16:20.916Z,56.33
2022-10-09T02:18:51.610Z,56.43
2022-10-09T02:21:26.350Z,56.39
2022-10-09T02:23:58.109Z,56.50
2022-10-09T02:26:27.353Z,56.51
2022-10-09T02:28:57.773Z,56.55
2022-10-09T02:31:29.855Z,56.76
2022-10-09T02:34:05.243Z,56.81
2022-10-09T02:36:33.814Z,56.85
2022-10-09T02:39:03.597Z,56.94
2022-10-09T02:41:32.537Z,56.92
2022-10-09T02:44:02.265Z,56.95
2022-10-09T02:46:30.933Z,56.97
2022-10-09T02:48:59.532Z,57.11
2022-10-09T02:51:28.048Z,57.27
2022-10-09T02:53:56.590Z,57.24
2022-10-09T02:56:25.032Z,57.35
2022-10-09T02:58:53.825Z,57.51
2022-10-09T03:01:22.483Z,57.55
2022-10-09T03:03:51.165Z,57.57
2022-10-09T03:06:25.277Z,57.66
2022-10-09T03:08:54.551Z,57.58
2022-10-09T03:11:25.159Z,57.58
2022-10-09T03:13:54.937Z,57.71
2022-10-09T03:16:25.414Z,57.64
2022-10-09T03:18:54.578Z,57.81
2022-10-09T03:21:27.805Z,57.92
2022-10-09T03:23:56.794Z,57.92
2022-10-09T03:26:27.304Z,57.95
2022-10-09T03:28:56.484Z,57.99
2022-10-09T03:31:50.378Z,58.06
2022-10-09T03:34:15.252Z,58.03
2022-10-09T03:36:43.824Z,58.11
2022-10-09T03:39:12.336Z,58.46
2022-10-09T03:41:40.849Z,59.05
2022-10-09T03:44:09.361Z,58.70
2022-10-09T03:46:38.024Z,58.69
2022-10-09T03:49:06.648Z,58.61
2022-10-09T03:51:35.159Z,58.63
2022-10-09T03:54:03.600Z,58.62
2022-10-09T03:56:32.061Z,58.79
2022-10-09T03:59:00.755Z,59.06
2022-10-09T04:01:29.270Z,59.11
2022-10-09T04:03:57.725Z,59.53
2022-10-09T04:06:26.224Z,59.24
2022-10-09T04:08:57.005Z,59.29
2022-10-09T04:11:25.379Z,59.56
2022-10-09T04:13:53.890Z,59.91
2022-10-09T04:16:22.470Z,59.61
2022-10-09T04:18:50.939Z,59.57
2022-10-09T04:21:19.469Z,59.62
2022-10-09T04:23:47.992Z,59.66
2022-10-09T04:26:16.403Z,59.76
2022-10-09T04:28:45.189Z,59.86
2022-10-09T04:31:13.834Z,59.90
2022-10-09T04:33:42.377Z,59.91
2022-10-09T04:36:10.886Z,59.87
2022-10-09T04:38:39.317Z,59.88
2022-10-09T04:41:07.906Z,59.77
2022-10-09T04:43:36.433Z,59.76
2022-10-09T04:46:09.489Z,59.75
2022-10-09T04:48:39.509Z,59.60
2022-10-09T04:51:08.800Z,59.50
2022-10-09T04:53:37.978Z,59.48
2022-10-09T04:56:09.106Z,59.33
2022-10-09T04:58:37.760Z,59.24
2022-10-09T05:01:08.976Z,59.19
2022-10-09T05:03:37.913Z,58.99
2022-10-09T05:06:09.359Z,59.18
2022-10-09T05:08:38.905Z,59.10
2022-10-09T05:11:10.835Z,59.30
2022-10-09T05:13:41.413Z,59.12
2022-10-09T05:16:13.206Z,59.16
2022-10-09T05:18:46.864Z,59.22
2022-10-09T05:21:16.177Z,59.16
2022-10-09T05:23:44.787Z,59.02
2022-10-09T05:26:18.707Z,58.65
2022-10-09T05:28:47.238Z,58.39
2022-10-09T05:31:23.215Z,58.30
2022-10-09T05:33:51.971Z,58.05
2022-10-09T05:36:21.056Z,57.88
2022-10-09T05:38:49.780Z,57.90
2022-10-09T05:41:19.927Z,57.76
2022-10-09T05:43:49.897Z,57.66
2022-10-09T05:46:25.634Z,57.58
2022-10-09T05:49:00.335Z,57.49
2022-10-09T05:51:34.772Z,57.49
2022-10-09T05:54:05.084Z,57.40
2022-10-09T05:56:38.926Z,57.32
2022-10-09T05:59:09.797Z,57.30
2022-10-09T06:01:40.817Z,57.25
2022-10-09T06:04:13.787Z,57.07
2022-10-09T06:06:42.963Z,57.08
2022-10-09T06:09:12.217Z,56.95
2022-10-09T06:11:41.069Z,56.86
2022-10-09T06:14:12.487Z,56.64
2022-10-09T06:16:43.163Z,56.55
2022-10-09T06:19:13.413Z,56.48
2022-10-09T06:21:42.844Z,56.44
2022-10-09T06:24:25.788Z,56.34
2022-10-09T06:26:57.870Z,56.08
2022-10-09T06:29:26.908Z,55.92
2022-10-09T06:31:55.328Z,55.97
2022-10-09T06:34:24.453Z,56.01
2022-10-09T06:36:53.085Z,55.44
2022-10-09T06:39:22.768Z,54.69
2022-10-09T06:41:51.302Z,54.57
2022-10-09T06:44:31.637Z,54.65
2022-10-09T06:47:00.152Z,54.94
2022-10-09T06:49:28.677Z,55.06
2022-10-09T06:51:57.241Z,55.00
2022-10-09T06:54:25.619Z,54.93
2022-10-09T06:56:55.454Z,54.05
2022-10-09T06:59:23.985Z,53.43
2022-10-09T07:01:52.544Z,53.71
2022-10-09T07:04:21.853Z,53.68
2022-10-09T07:06:50.370Z,53.91
2022-10-09T07:09:18.846Z,53.71
2022-10-09T07:11:51.091Z,53.37
2022-10-09T07:14:19.578Z,52.83
2022-10-09T07:16:49.176Z,51.59
2022-10-09T07:19:19.071Z,51.87
2022-10-09T07:21:49.516Z,51.74
2022-10-09T07:24:20.815Z,51.62
2022-10-09T07:26:49.428Z,51.19
2022-10-09T07:29:19.022Z,51.49
2022-10-09T07:31:48.295Z,51.18
2022-10-09T07:34:16.680Z,50.97
2022-10-09T07:36:45.120Z,50.67
2022-10-09T07:39:13.564Z,50.87
2022-10-09T07:41:42.080Z,50.74
2022-10-09T07:44:12.262Z,50.47
2022-10-09T07:46:40.684Z,50.49
2022-10-09T07:49:09.151Z,49.81
2022-10-09T07:51:37.618Z,49.77
2022-10-09T07:54:06.115Z,49.72
2022-10-09T07:56:38.129Z,49.70
2022-10-09T07:59:14.945Z,49.56
2022-10-09T08:01:43.645Z,49.39
2022-10-09T08:04:12.256Z,49.73
2022-10-09T08:06:40.749Z,49.80
2022-10-09T08:09:09.426Z,49.01
2022-10-09T08:11:40.891Z,48.52
2022-10-09T08:14:16.743Z,48.44
2022-10-09T08:16:48.254Z,47.79
2022-10-09T08:19:16.866Z,47.87
2022-10-09T08:21:45.399Z,48.17
2022-10-09T08:24:13.992Z,47.63
2022-10-09T08:26:44.335Z,47.71
2022-10-09T08:29:14.210Z,47.46
2022-10-09T08:31:43.000Z,47.21
2022-10-09T08:34:12.297Z,46.93
2022-10-09T08:36:40.822Z,47.19
2022-10-09T08:39:09.469Z,46.48
2022-10-09T08:41:47.689Z,46.16
2022-10-09T08:44:33.694Z,45.98
2022-10-09T08:47:21.440Z,45.56
2022-10-09T08:49:58.179Z,46.10
2022-10-09T08:52:38.871Z,45.86
2022-10-09T08:55:21.916Z,44.94
2022-10-09T08:57:53.192Z,45.37
2022-10-09T09:00:25.075Z,44.93
2022-10-09T09:03:23.067Z,43.93
2022-10-09T09:06:08.089Z,43.57
2022-10-09T09:08:48.979Z,43.83
2022-10-09T09:11:32.441Z,43.05
2022-10-09T09:14:00.895Z,43.39
2022-10-09T09:16:37.897Z,43.32
2022-10-09T09:19:16.774Z,42.13
2022-10-09T09:21:51.468Z,41.71
2022-10-09T09:24:25.846Z,42.93
2022-10-09T09:26:56.692Z,41.70
2022-10-09T09:29:27.067Z,40.25
2022-10-09T09:31:59.797Z,39.33
2022-10-09T09:34:35.010Z,39.09
2022-10-09T09:37:03.986Z,39.92
2022-10-09T09:40:24.142Z,39.83
2022-10-09T09:42:23.478Z,37.96
2022-10-09T09:45:03.415Z,37.87
2022-10-09T09:47:45.988Z,37.60
2022-10-09T09:50:35.218Z,37.46
2022-10-09T09:53:12.555Z,37.47
2022-10-09T09:55:41.176Z,36.76
2022-10-09T09:58:18.094Z,36.79
2022-10-09T10:00:58.552Z,36.31
2022-10-09T10:03:27.747Z,36.03
2022-10-09T10:05:56.786Z,35.06
2022-10-09T10:08:32.514Z,34.40
2022-10-09T10:11:06.651Z,34.86
2022-10-09T10:13:38.992Z,35.45
2022-10-09T10:16:09.055Z,35.21
2022-10-09T10:18:40.824Z,35.44
2022-10-09T10:21:16.818Z,35.97
2022-10-09T10:24:06.308Z,35.46
2022-10-09T10:26:40.438Z,35.36
2022-10-09T10:29:21.438Z,35.50
2022-10-09T10:32:16.161Z,35.61
2022-10-09T10:34:57.028Z,35.86
2022-10-09T10:37:38.951Z,35.69
2022-10-09T10:40:30.140Z,35.59
2022-10-09T10:42:59.393Z,35.63
2022-10-09T10:45:43.136Z,35.82
2022-10-09T10:48:13.365Z,36.05
2022-10-09T10:50:51.464Z,36.08
2022-10-09T10:53:31.963Z,35.90
2022-10-09T10:56:07.728Z,36.33
2022-10-09T10:59:01.375Z,36.18
2022-10-09T11:01:41.892Z,35.95
2022-10-09T11:04:16.286Z,36.32
2022-10-09T11:07:13.470Z,36.84
2022-10-09T11:10:02.857Z,37.00
2022-10-09T11:12:47.775Z,36.91
2022-10-09T11:15:21.445Z,36.96
2022-10-09T11:18:03.436Z,37.21
2022-10-09T11:21:02.907Z,37.27
2022-10-09T11:23:40.430Z,37.87
2022-10-09T11:26:18.762Z,37.81
2022-10-09T11:28:57.039Z,37.71
2022-10-09T11:31:40.029Z,37.67
2022-10-09T11:34:20.721Z,37.85
2022-10-09T11:36:49.196Z,37.61
2022-10-09T11:39:23.872Z,37.45
2022-10-09T11:41:55.186Z,37.45
2022-10-09T11:44:48.847Z,37.40
2022-10-09T11:47:23.725Z,37.59
2022-10-09T11:50:03.868Z,38.02
2022-10-09T11:52:40.237Z,37.46
2022-10-09T11:55:38.142Z,37.53
2022-10-09T11:58:19.035Z,37.77
2022-10-09T12:00:50.863Z,37.23
2022-10-09T12:03:36.448Z,37.08
2022-10-09T12:06:11.598Z,37.11
2022-10-09T12:08:43.823Z,36.87
2022-10-09T12:11:16.512Z,36.97
2022-10-09T12:13:51.745Z,36.93
2022-10-09T12:16:29.505Z,37.13
2022-10-09T12:19:00.047Z,37.66
2022-10-09T12:21:36.522Z,37.86
2022-10-09T12:24:07.095Z,37.92
2022-10-09T12:26:36.093Z,37.42
2022-10-09T12:29:05.600Z,37.09
2022-10-09T12:31:39.090Z,36.50
2022-10-09T12:34:19.654Z,36.09
2022-10-09T12:36:48.054Z,36.62
2022-10-09T12:39:25.885Z,37.09
2022-10-09T12:41:57.819Z,36.88
2022-10-09T12:44:31.243Z,36.17
2022-10-09T12:47:04.145Z,36.11
2022-10-09T12:49:32.819Z,36.03
2022-10-09T12:52:02.150Z,36.23
2022-10-09T12:54:31.503Z,36.21
2022-10-09T12:57:01.165Z,36.98
2022-10-09T12:59:30.002Z,37.14
2022-10-09T13:02:00.501Z,36.95
2022-10-09T13:04:34.239Z,36.91
2022-10-09T13:07:07.693Z,37.14
2022-10-09T13:09:39.921Z,37.27
2022-10-09T13:12:16.453Z,37.42
2022-10-09T13:14:58.122Z,37.48
2022-10-09T13:17:34.551Z,37.38
2022-10-09T13:20:25.251Z,37.54
2022-10-09T13:23:03.738Z,37.27
2022-10-09T13:25:36.004Z,36.97
2022-10-09T13:28:05.350Z,37.15
2022-10-09T13:30:34.051Z,37.39
2022-10-09T13:33:02.558Z,37.77
2022-10-09T13:35:31.149Z,37.88
2022-10-09T13:37:59.738Z,37.90
2022-10-09T13:40:28.452Z,37.43
2022-10-09T13:43:02.164Z,37.87
2022-10-09T13:45:30.590Z,38.05
2022-10-09T13:47:59.847Z,38.02
2022-10-09T13:50:28.460Z,38.12
2022-10-09T13:52:56.898Z,38.15
2022-10-09T13:55:26.230Z,38.33
2022-10-09T13:57:55.422Z,37.93
2022-10-09T14:00:24.207Z,38.27
2022-10-09T14:02:52.653Z,38.20
2022-10-09T14:05:21.956Z,37.90
2022-10-09T14:07:50.634Z,37.92
2022-10-09T14:10:23.925Z,37.81
2022-10-09T14:12:52.690Z,37.85
2022-10-09T14:15:21.356Z,38.20
2022-10-09T14:17:50.007Z,38.35
2022-10-09T14:20:19.092Z,38.41
2022-10-09T14:22:47.813Z,38.24
2022-10-09T14:25:16.853Z,38.36
2022-10-09T14:27:45.278Z,38.48
2022-10-09T14:30:14.057Z,38.35
2022-10-09T14:32:42.463Z,38.63
2022-10-09T14:35:13.099Z,38.66
2022-10-09T14:37:42.514Z,38.54
2022-10-09T14:40:11.696Z,38.56
2022-10-09T14:42:40.749Z,38.73
2022-10-09T14:45:10.308Z,38.94
2022-10-09T14:47:38.913Z,39.01
2022-10-09T14:50:08.038Z,39.10
2022-10-09T14:52:36.764Z,39.27
2022-10-09T14:55:05.509Z,39.48
2022-10-09T14:57:35.551Z,39.61
2022-10-09T15:00:06.279Z,39.69
2022-10-09T15:02:34.835Z,39.84
2022-10-09T15:05:04.604Z,40.12
2022-10-09T15:07:33.960Z,40.22
2022-10-09T15:10:02.342Z,40.43
2022-10-09T15:12:30.865Z,40.59
2022-10-09T15:14:59.344Z,40.88
2022-10-09T15:17:27.644Z,40.99
2022-10-09T15:19:56.229Z,41.09
2022-10-09T15:22:24.675Z,41.75
2022-10-09T15:24:53.267Z,41.72
2022-10-09T15:27:21.702Z,41.67
2022-10-09T15:29:50.235Z,42.00
2022-10-09T15:32:18.797Z,41.99
2022-10-09T15:34:47.187Z,42.27
2022-10-09T15:37:15.695Z,42.22
2022-10-09T15:39:44.097Z,42.36
2022-10-09T15:42:12.590Z,42.64
2022-10-09T15:44:42.263Z,43.00
2022-10-09T15:47:16.337Z,43.45
2022-10-09T15:49:45.945Z,43.56
2022-10-09T15:52:15.117Z,43.57
2022-10-09T15:54:43.582Z,44.72
2022-10-09T15:57:12.120Z,44.61
2022-10-09T15:59:42.675Z,45.35
2022-10-09T16:02:12.378Z,45.39
2022-10-09T16:04:41.179Z,45.34
2022-10-09T16:07:09.503Z,46.09
2022-10-09T16:09:38.265Z,45.72
2022-10-09T16:12:06.800Z,46.09
2022-10-09T16:14:35.276Z,46.37
2022-10-09T16:17:06.544Z,46.23
2022-10-09T16:19:37.648Z,45.72
2022-10-09T16:22:06.349Z,46.51
2022-10-09T16:24:34.835Z,47.25
2022-10-09T16:27:03.473Z,48.05
2022-10-09T16:29:32.044Z,47.62
2022-10-09T16:32:00.509Z,48.54
2022-10-09T16:34:29.090Z,50.31
2022-10-09T16:36:59.875Z,49.35
2022-10-09T16:39:28.443Z,49.20
2022-10-09T16:41:58.070Z,49.60
2022-10-09T16:44:26.560Z,49.83
2022-10-09T16:46:55.423Z,49.65
2022-10-09T16:49:25.171Z,49.33
2022-10-09T16:51:54.145Z,49.53
2022-10-09T16:54:22.450Z,49.59
2022-10-09T16:56:50.939Z,49.47
2022-10-09T16:59:19.513Z,49.31
2022-10-09T17:01:49.702Z,49.20
2022-10-09T17:04:18.046Z,49.04
2022-10-09T17:06:46.747Z,49.26
2022-10-09T17:09:15.306Z,49.10
2022-10-09T17:11:44.215Z,49.38
2022-10-09T17:14:13.032Z,48.94
2022-10-09T17:16:42.966Z,48.89
2022-10-09T17:19:11.534Z,49.31
2022-10-09T17:21:40.202Z,49.45
2022-10-09T17:24:09.108Z,49.98
2022-10-09T17:26:37.569Z,49.65
2022-10-09T17:29:06.028Z,49.75
2022-10-09T17:31:35.019Z,50.06
2022-10-09T17:34:04.703Z,49.94
2022-10-09T17:36:36.468Z,49.89
2022-10-09T17:39:07.768Z,50.03
2022-10-09T17:41:36.262Z,50.55
2022-10-09T17:44:05.189Z,50.54
2022-10-09T17:46:33.644Z,50.28
2022-10-09T17:49:02.214Z,50.62
2022-10-09T17:51:36.367Z,50.95
2022-10-09T17:54:11.945Z,51.45
2022-10-09T17:56:41.564Z,50.97
2022-10-09T17:59:10.351Z,51.28
2022-10-09T18:01:39.191Z,51.24
2022-10-09T18:04:07.817Z,50.98
2022-10-09T18:06:36.372Z,51.36
2022-10-09T18:09:05.008Z,51.25
2022-10-09T18:11:33.605Z,51.20
2022-10-09T18:14:02.222Z,51.62
2022-10-09T18:16:36.879Z,51.49
2022-10-09T18:19:12.547Z,51.22
2022-10-09T18:21:43.070Z,51.29
2022-10-09T18:24:12.366Z,51.66
2022-10-09T18:26:41.467Z,51.30
2022-10-09T18:29:10.103Z,51.47
2022-10-09T18:31:38.743Z,51.25
2022-10-09T18:34:07.364Z,51.51
2022-10-09T18:36:36.321Z,51.32
2022-10-09T18:39:13.875Z,51.45
2022-10-09T18:41:43.839Z,51.79
2022-10-09T18:44:17.736Z,52.00
2022-10-09T18:46:51.771Z,52.40
2022-10-09T18:49:25.031Z,52.50
2022-10-09T18:51:54.047Z,52.40
2022-10-09T18:54:24.871Z,52.65
2022-10-09T18:56:53.847Z,52.96
2022-10-09T18:59:23.322Z,53.04
2022-10-09T19:01:51.797Z,53.01
2022-10-09T19:04:20.160Z,52.85
2022-10-09T19:06:48.628Z,53.03
2022-10-09T19:09:17.520Z,53.14
2022-10-09T19:11:47.082Z,53.14
2022-10-09T19:14:16.187Z,53.25
2022-10-09T19:16:44.927Z,54.04
2022-10-09T19:19:13.818Z,54.68
2022-10-09T19:21:44.182Z,54.57
2022-10-09T19:24:13.542Z,55.26
2022-10-09T19:26:42.641Z,54.72
2022-10-09T19:29:11.387Z,54.51
2022-10-09T19:31:39.818Z,54.43
2022-10-09T19:34:08.691Z,54.58
2022-10-09T19:36:37.303Z,54.98
2022-10-09T19:39:08.643Z,55.69
2022-10-09T19:41:38.783Z,55.00
2022-10-09T19:44:07.330Z,54.76
2022-10-09T19:46:37.846Z,55.32
2022-10-09T19:49:07.877Z,55.61
2022-10-09T19:51:37.443Z,55.81
2022-10-09T19:54:07.513Z,55.79
2022-10-09T19:56:36.847Z,55.56
2022-10-09T19:59:07.953Z,55.73
2022-10-09T20:01:37.939Z,55.49
2022-10-09T20:04:09.686Z,55.51
2022-10-09T20:06:40.967Z,55.98
2022-10-09T20:09:11.070Z,56.59
2022-10-09T20:11:39.571Z,56.48
2022-10-09T20:14:09.947Z,56.30
2022-10-09T20:16:38.626Z,56.70
2022-10-09T20:19:07.679Z,56.44
2022-10-09T20:21:36.423Z,56.49
2022-10-09T20:24:06.356Z,56.33
2022-10-09T20:26:35.557Z,57.00
2022-10-09T20:29:07.341Z,56.71
2022-10-09T20:31:35.749Z,56.87
2022-10-09T20:34:04.257Z,57.11
2022-10-09T20:36:35.764Z,57.02
2022-10-09T20:39:07.344Z,57.42
2022-10-09T20:41:37.188Z,57.34
2022-10-09T20:44:06.516Z,57.31
2022-10-09T20:46:37.417Z,57.19
2022-10-09T20:49:11.167Z,56.84
2022-10-09T20:51:39.898Z,56.75
2022-10-09T20:54:13.987Z,56.75
2022-10-09T20:56:44.615Z,56.52
2022-10-09T20:59:14.420Z,56.52
2022-10-09T21:01:42.990Z,56.61
2022-10-09T21:04:12.472Z,56.38
2022-10-09T21:06:41.827Z,56.50
2022-10-09T21:09:10.311Z,56.22
2022-10-09T21:11:40.612Z,56.21
2022-10-09T21:14:10.067Z,56.46
2022-10-09T21:16:38.757Z,56.29
2022-10-09T21:19:07.486Z,56.53
2022-10-09T21:21:36.144Z,56.68
2022-10-09T21:24:04.826Z,56.14
2022-10-09T21:26:36.569Z,56.38
2022-10-09T21:29:05.902Z,56.19
2022-10-09T21:31:34.894Z,56.30
2022-10-09T21:34:03.760Z,56.45
2022-10-09T21:36:56.227Z,56.63
2022-10-09T21:39:31.600Z,56.47
2022-10-09T21:42:00.109Z,56.30
2022-10-09T21:44:28.541Z,56.02
2022-10-09T21:46:57.073Z,56.19
2022-10-09T21:49:27.872Z,56.06
2022-10-09T21:51:57.178Z,56.07
2022-10-09T21:54:25.603Z,56.00
2022-10-09T21:56:54.078Z,56.02
2022-10-09T21:59:22.493Z,56.07
2022-10-09T22:01:51.001Z,56.00
2022-10-09T22:04:19.610Z,55.82
2022-10-09T22:06:47.967Z,55.69
2022-10-09T22:09:16.383Z,55.62
2022-10-09T22:11:45.185Z,55.55
2022-10-09T22:14:13.769Z,55.32
2022-10-09T22:16:42.126Z,55.38
2022-10-09T22:19:10.610Z,55.22
2022-10-09T22:21:39.065Z,55.15
2022-10-09T22:24:07.523Z,55.14
2022-10-09T22:26:36.121Z,55.05
2022-10-09T22:29:04.597Z,55.31
2022-10-09T22:31:32.964Z,55.28
2022-10-09T22:34:02.627Z,55.27
2022-10-09T22:36:33.784Z,55.12
2022-10-09T22:39:05.679Z,55.06
2022-10-09T22:41:36.239Z,55.00
2022-10-09T22:44:07.121Z,55.08
2022-10-09T22:46:39.200Z,54.88
2022-10-09T22:49:11.251Z,54.84
2022-10-09T22:51:39.754Z,54.90
2022-10-09T22:54:08.751Z,54.96
2022-10-09T22:56:40.139Z,54.94
2022-10-09T22:59:09.898Z,54.96
2022-10-09T23:01:53.610Z,54.90
2022-10-09T23:04:23.387Z,54.94
2022-10-09T23:06:54.550Z,54.88
2022-10-09T23:09:25.244Z,54.80
2022-10-09T23:11:54.171Z,54.90
2022-10-09T23:14:23.110Z,54.86
2022-10-09T23:16:51.928Z,54.72
2022-10-09T23:19:20.324Z,54.67
2022-10-09T23:21:48.827Z,54.83
2022-10-09T23:24:18.073Z,54.67
2022-10-09T23:26:50.105Z,54.59
2022-10-09T23:29:21.021Z,54.59
2022-10-09T23:31:52.871Z,54.57
2022-10-09T23:34:21.277Z,54.50
2022-10-09T23:36:49.686Z,54.39
2022-10-09T23:39:18.139Z,54.39
2022-10-09T23:41:46.536Z,54.41
2022-10-09T23:44:17.836Z,54.31
2022-10-09T23:46:49.751Z,54.29
2022-10-09T23:49:18.575Z,54.25
2022-10-09T23:51:48.006Z,54.17
2022-10-09T23:54:16.360Z,54.09
2022-10-09T23:56:44.771Z,54.21
2022-10-09T23:59:13.190Z,54.19
